YHD weather

Dryden Regional Airport
Dryden, Ontario, Canada

Public forecast

Using degrees Celsius for public forecast. Weather courtesy of forecast.io.

Current aviation weather report (METAR) for Dryden Regional Airport

Retrieved 2020/01/27 02:00 UTC (38 minutes ago):

CYHD 270200Z AUTO 02005KT 9SM OVC005 M10/M11 A2997 RMK SLP184

Aviation forecast (TAF) for Dryden Regional Airport

Retrieved 2020-01-27 02:39 UTC (0 seconds ago):

TAF CYHD 270138Z 2702/2714 36005KT 11/2SM -SN BR OVC003 TEMPO 2702/2714 6SM BR OVC006 PROB30 2702/2714 3/4SM -FZDZ BR RMK FCST BASED ON AUTO OBS NXT FCST BY 270800Z